Denali National Park, AK

6:26 AM AKDT on July 28, 2014 (GMT -0800)
Minchumina (PAMH) Elev 702 ft | 63.89 °N, 152.30 °W | Change Station

Current weather conditions updated 9 days ago

Rain
Rain
50 °F
Feels Like 50 °F
N
8
Wind Variable Wind from NW
Gusts 11 mph

Today is forecast to be Much Warmer than yesterday. Periods of light rain.

Today
High -- | Low -- °F
--% Chance of Precip.
Yesterday
High -- | Low -- °F
Precip. -- in
5:03 AM 11:13 PM
New Moon, 2% visible
Pressure 29.62 in
Visibility 10.0 miles
Clouds
Dew Point 39 °F
Humidity 63%
Rainfall 0.00 in
Snow Depth Not available.
UV Not available.
Pollen Not available.
Air Quality Not available.
Flu Activity Not available.
METAR PAMH 190816Z AUTO 17006KT 10SM 13/09 A2962 RMK AO1

More Conditions Fewer Conditions

Pressure 29.62 in
Visibility 10.0 miles
Clouds
Dew Point 39 °F
Humidity 63%
Rainfall 0.00 in
Snow Depth Not available.
UV Not available.
Pollen Not available.
Air Quality Not available.
Flu Activity Not available.
METAR PAMH 190816Z AUTO 17006KT 10SM 13/09 A2962 RMK AO1

More Conditions Fewer Conditions

10-Day Weather Forecast

Almanac

Astronomy

Jul. 28, 2014 Rise Set
Actual Time 5:03 AM AKDT 11:13 PM AKDT
Civil Twilight 3:29 AM AKDT 12:45 AM AKDT
Nautical Twilight Sun does not rise Sun does not rise
Astronomical Twilight Sun does not rise Sun does not rise
Moon 8:01 AM AKDT 10:43 PM AKDT
Length of Visible Light 21h 15m
Length of Day
18h 09m
Tomorrow will be 6m 9s shorter.
New Moon, 2% of the Moon is Illuminated
Today
New Moon
Aug 3
First Quarter
Aug 10
Full
Aug 17
Last Quarter
Aug 25
New

Today's Extremes

State Highs State Lows

Community

WunderPhotos

Upload Photos

1,738,337 photos uploaded!

Nearby

Snow Depth

Station Depth Elevation
Susitna Valley High 2 in 375 ft
Point Mackenzie 1 in 200 ft
Little Chena Ridge 1 in 2000 ft
Munson Ridge 1 in 3100 ft
Granite Creek 0 in 1240 ft

Earthquake Activity

City Distance Mag. Time & Date
No recent earthquake activity has been reported nearby.
Minimum magnitude displayed is 2.5.

Coastal Water Temperatures

Place Temperature
No Stations Reporting

Nearby Weather Stations

Station Location Temp. Windchill Dew Point Humidity Wind Precip. Elev Updated Type
RAWS WONDER LAKE AK, Denali National Park, AK 41 °F 41 °F 37 °F 87% ESE  at  2 mph 0.00 in / hr 2049 ft 5:27 AM AKDT MADIS
RAWS STAMPEDE AK, Denali National Park, AK 38 °F 38 °F 36 °F 92% SSE  at  1 mph 0.00 in / hr 1799 ft 5:34 AM AKDT MADIS
RAWS MCKINLEY RIVER AK, Denali National Park, AK 40 °F 40 °F 39 °F 97% SSE  at  1 mph 0.00 in / hr 862 ft 5:50 AM AKDT MADIS
RAWS EIELSON VISTOR CENTER AK, Denali National Park, AK 45 °F 45 °F 35 °F 68% NNW  at  3 mph 0.00 in / hr 3652 ft 5:33 AM AKDT MADIS

Show More Stations Show Fewer Stations